Darya Jyoti — VRGM9 — position and weather

sailwx.info

Track history (hours):
 
Tides and Currents Weather Stations Pressure Air Temp Water Temp Dewpoint Dewpoint Depression Visibility Wind Speed Wind Dir Waves Ship Positions

Darya Jyoti

Last reported at 2017-Nov-11 13:28 UTC. Time now 2017-Nov-19 18:11 UTC.
Position N 01°21' E 104°25'.
Warning: this ship's position is 8 days out of date.

Length 229 m; draft 7.6 m.

Type: Cargo ship. MMSI: 477742700.

Date/timePositionNaut miles runAvg speedWind from/ knotsBaromVisibWave heightAir tempDewpointWater temp
2017-Nov-11 13:28N 01°21' E 104°25'1914.0
2017-Nov-11 12:05N 01°15' E 104°07'214.6
2017-Nov-11 11:59N 01°15' E 104°05'714.6
2017-Nov-11 11:30N 01°14' E 103°58'714.1
2017-Nov-11 11:01N 01°11' E 103°52'714.0
2017-Nov-11 10:30N 01°08' E 103°46'713.4
2017-Nov-11 10:00N 01°03' E 103°40'612.0
2017-Nov-11 09:30N 01°05' E 103°35'713.0
2017-Nov-11 08:58N 01°08' E 103°29'613.1
2017-Nov-11 08:29N 01°12' E 103°23'713.0
2017-Nov-11 07:56N 01°17' E 103°18'  
Track history (hours):
 
Tides and Currents Weather Stations Pressure Air Temp Water Temp Dewpoint Dewpoint Depression Visibility Wind Speed Wind Dir Waves Ship Positions

Darya Jyoti

Last reported at 2017-Nov-11 13:28 UTC. Time now 2017-Nov-19 18:11 UTC.
Position N 01°21' E 104°25'.
Warning: this ship's position is 8 days out of date.

Length 229 m; draft 7.6 m.

Type: Cargo ship. MMSI: 477742700.

Date/timePositionNaut miles runAvg speedWind from/ knotsBaromVisibWave heightAir tempDewpointWater temp
2017-Nov-11 13:28N 01°21' E 104°25'1914.0
2017-Nov-11 12:05N 01°15' E 104°07'214.6
2017-Nov-11 11:59N 01°15' E 104°05'714.6
2017-Nov-11 11:30N 01°14' E 103°58'714.1
2017-Nov-11 11:01N 01°11' E 103°52'714.0
2017-Nov-11 10:30N 01°08' E 103°46'713.4
2017-Nov-11 10:00N 01°03' E 103°40'612.0
2017-Nov-11 09:30N 01°05' E 103°35'713.0
2017-Nov-11 08:58N 01°08' E 103°29'613.1
2017-Nov-11 08:29N 01°12' E 103°23'713.0
2017-Nov-11 07:56N 01°17' E 103°18'  

Dump ship's entire track history